createdAt,value
2022-12-06T00:02:13.527Z,99566.91
2022-12-06T00:04:42.452Z,99571.25
2022-12-06T00:07:13.122Z,99560.91
2022-12-06T00:09:42.124Z,99562.63
2022-12-06T00:12:11.998Z,99561.81
2022-12-06T00:14:40.877Z,99568.75
2022-12-06T00:17:09.417Z,99556.63
2022-12-06T00:19:38.295Z,99548.84
2022-12-06T00:22:06.813Z,99551.38
2022-12-06T00:24:35.878Z,99553.16
2022-12-06T00:27:04.242Z,99548.78
2022-12-06T00:29:34.478Z,99558.38
2022-12-06T00:32:02.963Z,99559.22
2022-12-06T00:34:31.755Z,99560.06
2022-12-06T00:37:00.100Z,99544.41
2022-12-06T00:39:28.826Z,99546.16
2022-12-06T00:41:57.298Z,99547.03
2022-12-06T00:44:26.094Z,99541.75
2022-12-06T00:46:55.862Z,99539.13
2022-12-06T00:49:24.619Z,99536.59
2022-12-06T00:51:52.951Z,99532.25
2022-12-06T00:54:21.631Z,99527.00
2022-12-06T00:56:50.127Z,99525.28
2022-12-06T00:59:18.950Z,99514.88
2022-12-06T01:01:47.415Z,99527.94
2022-12-06T01:04:17.544Z,99521.91
2022-12-06T01:06:46.096Z,99516.69
2022-12-06T01:09:15.130Z,99515.00
2022-12-06T01:11:43.484Z,99517.59
2022-12-06T01:14:12.169Z,99513.25
2022-12-06T01:16:40.724Z,99498.44
2022-12-06T01:19:09.613Z,99490.66
2022-12-06T01:21:39.496Z,99502.75
2022-12-06T01:24:08.893Z,99497.50
2022-12-06T01:26:37.441Z,99491.44
2022-12-06T01:29:06.945Z,99498.34
2022-12-06T01:31:38.644Z,99505.31
2022-12-06T01:34:08.961Z,99505.41
2022-12-06T01:36:37.358Z,99506.28
2022-12-06T01:39:10.759Z,99507.13
2022-12-06T01:41:40.535Z,99498.44
2022-12-06T01:44:43.186Z,99485.50
2022-12-06T01:47:14.629Z,99475.94
2022-12-06T01:49:48.242Z,99465.50
2022-12-06T01:52:18.207Z,99477.66
2022-12-06T01:54:48.296Z,99474.16
2022-12-06T01:57:18.527Z,99469.78
2022-12-06T01:59:47.530Z,99453.31
2022-12-06T02:02:16.058Z,99472.38
2022-12-06T02:04:45.730Z,99457.63
2022-12-06T02:07:14.639Z,99465.47
2022-12-06T02:09:44.781Z,99455.97
2022-12-06T02:12:16.184Z,99467.19
2022-12-06T02:14:50.034Z,99454.19
2022-12-06T02:17:31.520Z,99454.25
2022-12-06T02:20:13.852Z,99462.06
2022-12-06T02:23:11.751Z,99466.44
2022-12-06T02:26:04.942Z,99456.84
2022-12-06T02:28:59.281Z,99459.44
2022-12-06T02:31:32.950Z,99446.44
2022-12-06T02:34:08.760Z,99443.00
2022-12-06T02:36:45.555Z,99439.53
2022-12-06T02:39:20.325Z,99437.81
2022-12-06T02:41:54.327Z,99432.59
2022-12-06T02:44:29.445Z,99441.28
2022-12-06T02:47:02.433Z,99441.28
2022-12-06T02:49:34.634Z,99434.34
2022-12-06T02:52:04.255Z,99436.06
2022-12-06T02:54:33.483Z,99432.59
2022-12-06T02:57:02.138Z,99433.47
2022-12-06T02:59:30.614Z,99428.22
2022-12-06T03:02:04.003Z,99420.44
2022-12-06T03:04:51.250Z,99423.03
2022-12-06T03:07:33.917Z,99428.28
2022-12-06T03:10:19.145Z,99416.09
2022-12-06T03:12:56.648Z,99411.78
2022-12-06T03:15:37.600Z,99417.00
2022-12-06T03:18:14.839Z,99419.59
2022-12-06T03:20:48.259Z,99422.19
2022-12-06T03:23:23.065Z,99417.88
2022-12-06T03:25:53.400Z,99425.66
2022-12-06T03:28:23.243Z,99424.78
2022-12-06T03:30:55.300Z,99418.75
2022-12-06T03:33:30.251Z,99426.53
2022-12-06T03:35:59.841Z,99425.66
2022-12-06T03:38:33.859Z,99420.47
2022-12-06T03:41:06.669Z,99417.88
2022-12-06T03:43:35.928Z,99424.81
2022-12-06T03:46:09.952Z,99411.78
2022-12-06T03:48:44.612Z,99406.56
2022-12-06T03:51:19.016Z,99408.31
2022-12-06T03:53:50.914Z,99407.44
2022-12-06T03:56:19.417Z,99403.94
2022-12-06T03:58:48.072Z,99397.88
2022-12-06T04:01:16.807Z,99417.00
2022-12-06T04:03:47.051Z,99421.31
2022-12-06T04:06:15.637Z,99421.34
2022-12-06T04:08:44.450Z,99405.69
2022-12-06T04:11:12.867Z,99408.28
2022-12-06T04:13:41.595Z,99414.34
2022-12-06T04:16:24.706Z,99403.09
2022-12-06T04:18:55.084Z,99397.88
2022-12-06T04:21:41.325Z,99397.88
2022-12-06T04:24:10.159Z,99393.56
2022-12-06T04:26:38.595Z,99410.91
2022-12-06T04:29:25.182Z,99406.56
2022-12-06T04:32:10.782Z,99402.22
2022-12-06T04:34:58.695Z,99403.97
2022-12-06T04:37:44.282Z,99399.63
2022-12-06T04:40:13.125Z,99393.50
2022-12-06T04:43:13.577Z,99387.44
2022-12-06T04:45:42.225Z,99394.38
2022-12-06T04:48:11.194Z,99391.78
2022-12-06T04:50:43.049Z,99383.97
2022-12-06T04:53:11.438Z,99382.25
2022-12-06T04:55:40.165Z,99392.63
2022-12-06T04:58:08.565Z,99390.03
2022-12-06T05:00:37.321Z,99390.03
2022-12-06T05:03:05.790Z,99383.13
2022-12-06T05:05:34.555Z,99395.25
2022-12-06T05:08:04.606Z,99381.38
2022-12-06T05:10:33.742Z,99387.47
2022-12-06T05:13:02.289Z,99391.81
2022-12-06T05:15:31.675Z,99387.47
2022-12-06T05:18:00.236Z,99386.59
2022-12-06T05:20:29.034Z,99388.34
2022-12-06T05:22:57.680Z,99384.00
2022-12-06T05:25:27.680Z,99377.91
2022-12-06T05:27:55.998Z,99378.81
2022-12-06T05:30:24.826Z,99378.78
2022-12-06T05:32:56.940Z,99384.00
2022-12-06T05:35:26.079Z,99376.19
2022-12-06T05:37:54.561Z,99387.47
2022-12-06T05:40:23.429Z,99384.00
2022-12-06T05:42:53.263Z,99373.56
2022-12-06T05:45:22.057Z,99379.66
2022-12-06T05:47:50.593Z,99385.72
2022-12-06T05:50:19.407Z,99384.88
2022-12-06T05:52:49.826Z,99378.75
2022-12-06T05:55:18.597Z,99370.06
2022-12-06T05:57:47.784Z,99369.22
2022-12-06T06:00:19.364Z,99365.72
2022-12-06T06:02:48.475Z,99354.47
2022-12-06T06:05:17.422Z,99353.59
2022-12-06T06:07:45.925Z,99357.06
2022-12-06T06:10:15.939Z,99350.97
2022-12-06T06:12:45.779Z,99350.09
2022-12-06T06:15:15.142Z,99359.63
2022-12-06T06:17:45.014Z,99350.94
2022-12-06T06:20:14.946Z,99357.00
2022-12-06T06:22:43.521Z,99349.19
2022-12-06T06:25:12.342Z,99346.56
2022-12-06T06:27:40.778Z,99360.47
2022-12-06T06:30:13.178Z,99353.53
2022-12-06T06:32:41.886Z,99361.38
2022-12-06T06:35:12.221Z,99363.06
2022-12-06T06:37:40.850Z,99375.25
2022-12-06T06:40:11.474Z,99377.78
2022-12-06T06:42:40.373Z,99381.25
2022-12-06T06:45:10.090Z,99377.72
2022-12-06T06:47:38.712Z,99374.25
2022-12-06T06:50:08.942Z,99372.50
2022-12-06T06:52:38.902Z,99354.22
2022-12-06T06:55:08.342Z,99356.84
2022-12-06T06:57:36.895Z,99357.69
2022-12-06T07:00:07.385Z,99361.97
2022-12-06T07:02:36.919Z,99357.63
2022-12-06T07:05:06.087Z,99355.91
2022-12-06T07:07:34.732Z,99363.78
2022-12-06T07:10:05.888Z,99359.34
2022-12-06T07:12:34.518Z,99369.81
2022-12-06T07:15:03.790Z,99362.00
2022-12-06T07:17:32.391Z,99350.72
2022-12-06T07:20:01.909Z,99359.44
2022-12-06T07:22:31.185Z,99352.38
2022-12-06T07:25:00.082Z,99353.22
2022-12-06T07:27:29.961Z,99348.09
2022-12-06T07:29:59.715Z,99341.94
2022-12-06T07:32:28.541Z,99323.53
2022-12-06T07:34:57.289Z,99336.50
2022-12-06T07:37:25.743Z,99332.06
2022-12-06T07:39:54.521Z,99330.44
2022-12-06T07:42:40.373Z,99314.69
2022-12-06T07:45:13.040Z,99312.00
2022-12-06T07:47:43.815Z,99314.63
2022-12-06T07:50:18.223Z,99316.31
2022-12-06T07:52:48.485Z,99314.56
2022-12-06T07:55:18.634Z,99323.22
2022-12-06T07:57:47.897Z,99317.03
2022-12-06T08:00:18.635Z,99320.47
2022-12-06T08:02:47.130Z,99317.81
2022-12-06T08:05:16.205Z,99329.97
2022-12-06T08:07:44.872Z,99330.72
2022-12-06T08:10:13.693Z,99334.91
2022-12-06T08:12:42.325Z,99335.00
2022-12-06T08:15:13.155Z,99340.75
2022-12-06T08:17:43.406Z,99330.25
2022-12-06T08:20:13.516Z,99342.28
2022-12-06T08:22:42.042Z,99343.09
2022-12-06T08:25:11.440Z,99332.44
2022-12-06T08:27:40.004Z,99333.97
2022-12-06T08:30:10.107Z,99337.44
2022-12-06T08:32:38.545Z,99340.84
2022-12-06T08:35:09.450Z,99339.72
2022-12-06T08:37:37.964Z,99330.31
2022-12-06T08:40:08.373Z,99339.81
2022-12-06T08:42:36.786Z,99335.41
2022-12-06T08:45:06.427Z,99347.41
2022-12-06T08:47:35.113Z,99349.16
2022-12-06T08:50:04.102Z,99346.41
2022-12-06T08:52:34.130Z,99347.13
2022-12-06T08:55:02.918Z,99338.72
2022-12-06T08:57:33.450Z,99332.63
2022-12-06T09:00:02.639Z,99325.25
2022-12-06T09:02:31.379Z,99317.97
2022-12-06T09:05:00.342Z,99319.59
2022-12-06T09:07:28.961Z,99324.78
2022-12-06T09:09:59.890Z,99328.72
2022-12-06T09:12:31.421Z,99324.22
2022-12-06T09:15:00.229Z,99324.03
2022-12-06T09:17:28.738Z,99315.16
2022-12-06T09:20:03.747Z,99324.59
2022-12-06T09:22:34.258Z,99322.66
2022-12-06T09:25:05.292Z,99318.19
2022-12-06T09:27:33.922Z,99313.00
2022-12-06T09:30:03.065Z,99304.88
2022-12-06T09:32:32.070Z,99309.69
2022-12-06T09:35:00.886Z,99298.22
2022-12-06T09:37:29.521Z,99313.22
2022-12-06T09:40:02.733Z,99316.47
2022-12-06T09:42:50.817Z,99306.03
2022-12-06T09:45:29.161Z,99307.91
2022-12-06T09:48:20.192Z,99308.16
2022-12-06T09:51:01.006Z,99302.06
2022-12-06T09:53:38.831Z,99303.09
2022-12-06T09:56:13.392Z,99301.81
2022-12-06T09:58:57.471Z,99303.88
2022-12-06T10:01:38.885Z,99302.88
2022-12-06T10:04:32.895Z,99305.72
2022-12-06T10:07:09.255Z,99294.41
2022-12-06T10:09:50.663Z,99296.56
2022-12-06T10:12:30.921Z,99291.09
2022-12-06T10:15:20.542Z,99287.28
2022-12-06T10:18:07.561Z,99294.78
2022-12-06T10:20:42.688Z,99285.28
2022-12-06T10:23:26.055Z,99293.09
2022-12-06T10:26:06.022Z,99302.31
2022-12-06T10:28:44.154Z,99318.47
2022-12-06T10:31:25.643Z,99311.38
2022-12-06T10:33:57.815Z,99306.59
2022-12-06T10:36:41.942Z,99306.50
2022-12-06T10:39:19.143Z,99308.66
2022-12-06T10:41:55.523Z,99315.88
2022-12-06T10:44:33.145Z,99305.63
2022-12-06T10:47:07.118Z,99308.66
2022-12-06T10:49:47.559Z,99300.53
2022-12-06T10:52:26.102Z,99302.59
2022-12-06T10:55:03.858Z,99294.19
2022-12-06T10:57:39.067Z,99300.22
2022-12-06T11:00:16.689Z,99284.47
2022-12-06T11:02:53.513Z,99288.97
2022-12-06T11:05:28.104Z,99290.41
2022-12-06T11:08:04.425Z,99296.13
2022-12-06T11:10:35.951Z,99299.94
2022-12-06T11:13:16.711Z,99299.72
2022-12-06T11:15:53.391Z,99300.19
2022-12-06T11:18:26.268Z,99291.91
2022-12-06T11:21:01.322Z,99283.63
2022-12-06T11:23:41.335Z,99287.38
2022-12-06T11:26:23.014Z,99292.41
2022-12-06T11:29:00.229Z,99293.88
2022-12-06T11:31:34.435Z,99282.50
2022-12-06T11:34:06.601Z,99270.88
2022-12-06T11:36:35.864Z,99277.00
2022-12-06T11:39:05.760Z,99282.69
2022-12-06T11:41:37.968Z,99287.56
2022-12-06T11:44:07.420Z,99282.00
2022-12-06T11:46:36.149Z,99281.94
2022-12-06T11:49:18.312Z,99282.13
2022-12-06T11:51:46.980Z,99282.63
2022-12-06T11:54:25.622Z,99277.88
2022-12-06T11:56:58.322Z,99269.06
2022-12-06T11:59:29.017Z,99272.19
2022-12-06T12:02:00.812Z,99269.78
2022-12-06T12:04:37.126Z,99282.22
2022-12-06T12:07:14.942Z,99273.31
2022-12-06T12:09:50.608Z,99273.66
2022-12-06T12:12:22.757Z,99265.06
2022-12-06T12:14:58.266Z,99270.19
2022-12-06T12:17:31.562Z,99270.28
2022-12-06T12:20:05.425Z,99262.41
2022-12-06T12:22:37.473Z,99267.78
2022-12-06T12:25:23.234Z,99280.25
2022-12-06T12:27:53.524Z,99283.22
2022-12-06T12:30:28.459Z,99282.31
2022-12-06T12:33:18.578Z,99285.63
2022-12-06T12:35:50.953Z,99284.59
2022-12-06T12:38:28.343Z,99280.56
2022-12-06T12:40:59.701Z,99282.22
2022-12-06T12:43:31.670Z,99280.47
2022-12-06T12:46:07.469Z,99279.63
2022-12-06T12:48:37.028Z,99287.31
2022-12-06T12:51:20.895Z,99296.06
2022-12-06T12:53:56.555Z,99296.16
2022-12-06T12:56:25.718Z,99309.41
2022-12-06T12:58:56.715Z,99310.66
2022-12-06T13:01:37.689Z,99306.75
2022-12-06T13:04:17.762Z,99302.22
2022-12-06T13:06:52.748Z,99308.31
2022-12-06T13:09:26.326Z,99320.31
2022-12-06T13:12:01.716Z,99329.06
2022-12-06T13:14:32.743Z,99331.13
2022-12-06T13:17:08.207Z,99333.94
2022-12-06T13:19:41.702Z,99346.50
2022-12-06T13:22:20.081Z,99341.75
2022-12-06T13:24:59.853Z,99347.88
2022-12-06T13:31:41.096Z,99352.53
2022-12-06T13:34:22.311Z,99355.25
2022-12-06T13:36:52.874Z,99345.56
2022-12-06T13:39:40.783Z,99331.41
2022-12-06T13:42:25.250Z,99335.38
2022-12-06T13:44:59.375Z,99334.44
2022-12-06T13:47:41.769Z,99344.97
2022-12-06T13:50:47.748Z,99334.34
2022-12-06T13:53:17.232Z,99325.94
2022-12-06T13:56:01.859Z,99327.00
2022-12-06T13:58:54.117Z,99306.25
2022-12-06T14:01:42.341Z,99295.25
2022-12-06T14:07:01.169Z,99305.19
2022-12-06T14:09:39.395Z,99293.50
2022-12-06T14:12:17.698Z,99301.28
2022-12-06T14:14:56.403Z,99316.09
2022-12-06T14:18:00.324Z,99324.03
2022-12-06T14:20:23.281Z,99329.69
2022-12-06T14:22:52.808Z,99327.66
2022-12-06T14:25:25.442Z,99327.00
2022-12-06T14:28:05.850Z,99313.41
2022-12-06T14:30:35.432Z,99321.25
2022-12-06T14:33:04.243Z,99328.13
2022-12-06T14:35:37.596Z,99341.41
2022-12-06T14:38:23.259Z,99343.47
2022-12-06T14:41:09.906Z,99345.34
2022-12-06T14:43:42.443Z,99347.66
2022-12-06T14:46:14.927Z,99349.91
2022-12-06T14:49:03.158Z,99346.13
2022-12-06T14:51:37.336Z,99348.75
2022-12-06T14:54:18.684Z,99346.63
2022-12-06T14:56:49.156Z,99346.59
2022-12-06T14:59:47.328Z,99353.78
2022-12-06T15:02:23.502Z,99360.31
2022-12-06T15:04:52.263Z,99345.00
2022-12-06T15:07:34.189Z,99343.47
2022-12-06T15:10:30.055Z,99344.78
2022-12-06T15:13:09.144Z,99340.22
2022-12-06T15:15:41.512Z,99357.72
2022-12-06T15:18:21.207Z,99365.69
2022-12-06T15:20:50.088Z,99384.44
2022-12-06T15:23:36.060Z,99388.19
2022-12-06T15:26:05.950Z,99389.88
2022-12-06T15:28:35.820Z,99382.94
2022-12-06T15:31:07.414Z,99391.78
2022-12-06T15:33:37.499Z,99386.56
2022-12-06T15:36:06.508Z,99375.28
2022-12-06T15:38:35.351Z,99379.63
2022-12-06T15:41:04.232Z,99384.84
2022-12-06T15:43:35.868Z,99389.16
2022-12-06T15:46:06.086Z,99397.88
2022-12-06T15:48:37.538Z,99398.72
2022-12-06T15:51:10.473Z,99394.31
2022-12-06T15:53:40.973Z,99393.50
2022-12-06T15:56:14.891Z,99394.31
2022-12-06T15:58:44.607Z,99398.63
2022-12-06T16:01:20.459Z,99403.00
2022-12-06T16:03:50.119Z,99406.44
2022-12-06T16:06:21.178Z,99404.50
2022-12-06T16:08:50.048Z,99413.13
2022-12-06T16:11:21.348Z,99406.22
2022-12-06T16:13:51.772Z,99404.22
2022-12-06T16:16:22.988Z,99416.25
2022-12-06T16:18:52.317Z,99411.97
2022-12-06T16:21:23.988Z,99404.75
2022-12-06T16:24:13.974Z,99404.56
2022-12-06T16:26:45.199Z,99415.66
2022-12-06T16:29:18.101Z,99395.44
2022-12-06T16:31:48.790Z,99397.78
2022-12-06T16:34:18.407Z,99393.25
2022-12-06T16:36:59.181Z,99388.59
2022-12-06T16:39:29.168Z,99380.72
2022-12-06T16:41:57.921Z,99382.28
2022-12-06T16:44:27.158Z,99378.66
2022-12-06T16:46:57.493Z,99369.69
2022-12-06T16:49:45.884Z,99362.53
2022-12-06T16:52:15.414Z,99368.03
2022-12-06T16:54:44.231Z,99368.78
2022-12-06T16:57:13.897Z,99380.91
2022-12-06T16:59:43.413Z,99383.38
2022-12-06T17:02:26.951Z,99378.69
2022-12-06T17:04:57.481Z,99386.75
2022-12-06T17:07:26.013Z,99384.94
2022-12-06T17:09:55.435Z,99385.72
2022-12-06T17:12:24.687Z,99381.22
2022-12-06T17:14:54.474Z,99379.38
2022-12-06T17:17:26.217Z,99375.81
2022-12-06T17:19:56.351Z,99381.06
2022-12-06T17:22:25.726Z,99375.81
2022-12-06T17:24:54.844Z,99385.34
2022-12-06T17:27:23.845Z,99392.22
2022-12-06T17:29:53.113Z,99381.03
2022-12-06T17:32:22.115Z,99382.94
2022-12-06T17:34:52.425Z,99389.84
2022-12-06T17:37:21.211Z,99395.91
2022-12-06T17:39:49.978Z,99395.00
2022-12-06T17:42:36.516Z,99399.38
2022-12-06T17:45:06.770Z,99397.50
2022-12-06T17:47:35.922Z,99392.25
2022-12-06T17:50:08.724Z,99390.59
2022-12-06T17:52:37.555Z,99395.94
2022-12-06T17:55:07.068Z,99395.13
2022-12-06T17:57:35.826Z,99397.75
2022-12-06T18:00:07.363Z,99400.41
2022-12-06T18:02:36.002Z,99399.59
2022-12-06T18:05:06.883Z,99400.41
2022-12-06T18:07:35.724Z,99403.91
2022-12-06T18:10:05.564Z,99398.56
2022-12-06T18:12:35.239Z,99395.91
2022-12-06T18:15:04.599Z,99386.31
2022-12-06T18:17:33.397Z,99392.44
2022-12-06T18:20:02.147Z,99393.25
2022-12-06T18:22:32.340Z,99395.81
2022-12-06T18:25:01.639Z,99394.84
2022-12-06T18:27:30.374Z,99395.75
2022-12-06T18:29:59.953Z,99385.25
2022-12-06T18:32:28.803Z,99392.22
2022-12-06T18:34:57.907Z,99387.81
2022-12-06T18:37:26.712Z,99380.75
2022-12-06T18:39:56.983Z,99387.69
2022-12-06T18:42:25.441Z,99383.31
2022-12-06T18:44:58.509Z,99382.38
2022-12-06T18:47:27.624Z,99392.94
2022-12-06T18:49:57.584Z,99386.75
2022-12-06T18:52:26.067Z,99385.00
2022-12-06T18:54:57.186Z,99384.81
2022-12-06T18:57:31.805Z,99372.56
2022-12-06T19:00:01.529Z,99373.63
2022-12-06T19:02:31.231Z,99378.13
2022-12-06T19:05:00.483Z,99378.16
2022-12-06T19:07:29.346Z,99377.38
2022-12-06T19:09:59.567Z,99378.13
2022-12-06T19:12:28.348Z,99379.03
2022-12-06T19:14:57.212Z,99384.31
2022-12-06T19:17:25.723Z,99376.63
2022-12-06T19:19:54.433Z,99380.97
2022-12-06T19:22:22.991Z,99377.63
2022-12-06T19:24:52.209Z,99375.91
2022-12-06T19:27:22.070Z,99370.72
2022-12-06T19:29:51.207Z,99368.03
2022-12-06T19:32:19.735Z,99366.41
2022-12-06T19:34:50.046Z,99364.78
2022-12-06T19:37:18.577Z,99366.47
2022-12-06T19:39:47.351Z,99361.19
2022-12-06T19:42:33.144Z,99365.63
2022-12-06T19:45:03.560Z,99362.16
2022-12-06T19:47:32.507Z,99354.41
2022-12-06T19:50:01.745Z,99351.66
2022-12-06T19:52:31.279Z,99354.19
2022-12-06T19:55:00.214Z,99353.47
2022-12-06T19:57:28.936Z,99340.22
2022-12-06T19:59:58.052Z,99343.81
2022-12-06T20:02:28.150Z,99344.09
2022-12-06T20:04:57.254Z,99336.34
2022-12-06T20:07:46.156Z,99339.22
2022-12-06T20:10:14.984Z,99350.44
2022-12-06T20:12:43.728Z,99345.19
2022-12-06T20:15:13.405Z,99348.50
2022-12-06T20:17:43.684Z,99350.06
2022-12-06T20:20:12.812Z,99352.63
2022-12-06T20:22:41.372Z,99347.25
2022-12-06T20:25:10.853Z,99338.66
2022-12-06T20:27:56.072Z,99346.47
2022-12-06T20:30:25.378Z,99357.88
2022-12-06T20:32:55.229Z,99355.38
2022-12-06T20:35:24.423Z,99357.06
2022-12-06T20:37:52.905Z,99363.97
2022-12-06T20:40:25.595Z,99363.84
2022-12-06T20:42:56.850Z,99369.03
2022-12-06T20:45:25.690Z,99376.88
2022-12-06T20:47:55.630Z,99374.97
2022-12-06T20:50:24.447Z,99381.00
2022-12-06T20:52:52.857Z,99373.13
2022-12-06T20:55:21.571Z,99380.19
2022-12-06T20:57:49.960Z,99375.75
2022-12-06T21:00:20.020Z,99375.75
2022-12-06T21:02:48.464Z,99370.56
2022-12-06T21:05:19.251Z,99366.94
2022-12-06T21:07:47.734Z,99373.88
2022-12-06T21:10:16.562Z,99368.56
2022-12-06T21:12:44.951Z,99365.84
2022-12-06T21:15:13.869Z,99356.16
2022-12-06T21:17:42.321Z,99356.13
2022-12-06T21:20:11.824Z,99354.44
2022-12-06T21:22:41.756Z,99342.22
2022-12-06T21:25:10.790Z,99344.19
2022-12-06T21:27:39.343Z,99345.03
2022-12-06T21:30:09.699Z,99344.97
2022-12-06T21:32:38.289Z,99341.44
2022-12-06T21:35:08.003Z,99351.94
2022-12-06T21:37:36.471Z,99347.56
2022-12-06T21:40:08.065Z,99348.31
2022-12-06T21:42:37.174Z,99353.88
2022-12-06T21:45:07.082Z,99350.38
2022-12-06T21:47:35.464Z,99347.78
2022-12-06T21:50:04.393Z,99346.84
2022-12-06T21:52:32.991Z,99345.91
2022-12-06T21:55:01.762Z,99346.84
2022-12-06T21:57:34.636Z,99341.91
2022-12-06T22:00:03.853Z,99335.16
2022-12-06T22:02:40.705Z,99333.47
2022-12-06T22:05:10.320Z,99339.50
2022-12-06T22:07:40.021Z,99341.22
2022-12-06T22:10:10.525Z,99339.34
2022-12-06T22:12:41.289Z,99345.31
2022-12-06T22:15:11.046Z,99340.03
2022-12-06T22:17:39.500Z,99339.13
2022-12-06T22:20:09.206Z,99322.56
2022-12-06T22:22:37.631Z,99337.44
2022-12-06T22:25:07.552Z,99325.28
2022-12-06T22:27:36.040Z,99324.78
2022-12-06T22:30:07.705Z,99324.88
2022-12-06T22:32:36.182Z,99329.34
2022-12-06T22:35:05.211Z,99328.44
2022-12-06T22:37:33.622Z,99318.13
2022-12-06T22:40:02.661Z,99312.25
2022-12-06T22:42:32.557Z,99312.19
2022-12-06T22:45:01.310Z,99313.28
2022-12-06T22:47:31.341Z,99308.84
2022-12-06T22:50:00.516Z,99304.78
2022-12-06T22:52:29.307Z,99312.75
2022-12-06T22:54:58.023Z,99317.97
2022-12-06T22:57:26.433Z,99312.59
2022-12-06T22:59:55.335Z,99318.53
2022-12-06T23:02:24.124Z,99308.78
2022-12-06T23:04:54.417Z,99310.41
2022-12-06T23:07:22.943Z,99314.59
2022-12-06T23:09:51.711Z,99314.59
2022-12-06T23:12:20.179Z,99300.53
2022-12-06T23:14:48.949Z,99294.44
2022-12-06T23:17:17.339Z,99291.06
2022-12-06T23:19:46.196Z,99292.19
2022-12-06T23:22:16.125Z,99297.47
2022-12-06T23:24:44.759Z,99304.66
2022-12-06T23:27:13.193Z,99295.16
2022-12-06T23:29:41.882Z,99286.53
2022-12-06T23:32:11.214Z,99281.47
2022-12-06T23:34:40.295Z,99303.28
2022-12-06T23:37:08.504Z,99295.22
2022-12-06T23:39:38.791Z,99295.22
2022-12-06T23:42:07.237Z,99303.44
2022-12-06T23:44:37.105Z,99304.19
2022-12-06T23:47:05.980Z,99299.03
2022-12-06T23:49:34.632Z,99292.97
2022-12-06T23:52:03.071Z,99294.03
2022-12-06T23:54:31.972Z,99294.41
2022-12-06T23:57:01.843Z,99292.56
2022-12-06T23:59:30.571Z,99293.44
